Time;durP1;ratioP1;P1;durP2;ratioP2;P2;SDS_P1;SDS_P2;PMS_P1;PMS_P2;Temp;Humidity;BMP_temperature;BMP_pressure;BME280_temperature;BME280_humidity;BME280_pressure;Samples;Min_cycle;Max_cycle;Signal;HPM_P1;HPM_P2
2022/01/05 00:01:22;;;;;;;4.35;0.40;;;1.80;99.90;;;;;;5046863;28;20039;-83
2022/01/05 00:03:47;;;;;;;0.82;0.30;;;2.60;99.90;;;;;;5044519;28;20045;-83
2022/01/05 00:06:13;;;;;;;2.97;0.77;;;2.30;99.90;;;;;;5044189;28;20052;-83
2022/01/05 00:08:39;;;;;;;1.08;0.50;;;2.40;99.90;;;;;;5043372;28;20453;-81
2022/01/05 00:11:06;;;;;;;3.25;0.50;;;1.90;99.90;;;;;;5043365;28;20037;-82
2022/01/05 00:13:32;;;;;;;1.00;0.50;;;2.50;99.90;;;;;;5043116;28;20049;-83
2022/01/05 00:15:58;;;;;;;7.00;0.60;;;1.90;99.90;;;;;;5044717;28;20042;-83
2022/01/05 00:18:23;;;;;;;5.18;0.65;;;2.00;99.90;;;;;;5045229;28;20385;-83
2022/01/05 00:20:49;;;;;;;3.28;0.40;;;2.50;99.90;;;;;;5043413;28;20041;-83
2022/01/05 00:23:15;;;;;;;6.90;0.95;;;2.40;99.90;;;;;;5045631;28;20095;-83
2022/01/05 00:25:41;;;;;;;2.10;0.70;;;2.00;99.90;;;;;;5043057;28;20551;-83
2022/01/05 00:28:06;;;;;;;7.75;0.55;;;1.90;99.90;;;;;;5042173;28;20068;-82
2022/01/05 00:30:32;;;;;;;2.17;0.40;;;1.90;99.90;;;;;;5017485;28;20431;-83
2022/01/05 00:32:58;;;;;;;6.43;0.60;;;1.90;99.90;;;;;;5037773;28;20056;-83
2022/01/05 00:35:24;;;;;;;2.40;0.45;;;2.40;99.90;;;;;;5045089;28;20045;-81
2022/01/05 00:37:49;;;;;;;4.32;0.90;;;2.80;99.90;;;;;;5028644;28;20047;-83
2022/01/05 00:40:15;;;;;;;4.18;0.55;;;1.80;99.90;;;;;;5019654;28;20033;-83
2022/01/05 00:42:41;;;;;;;5.45;0.73;;;1.80;99.90;;;;;;5045841;28;20495;-83
2022/01/05 00:45:07;;;;;;;2.90;0.65;;;1.80;99.90;;;;;;5045996;28;20075;-83
2022/01/05 00:47:33;;;;;;;5.63;0.77;;;1.90;99.90;;;;;;5043267;28;20091;-83
2022/01/05 00:49:59;;;;;;;3.90;0.50;;;2.50;99.90;;;;;;5042908;28;20495;-83
2022/01/05 00:52:24;;;;;;;2.92;0.60;;;2.00;99.90;;;;;;5042485;28;20048;-82
2022/01/05 00:54:51;;;;;;;11.10;0.70;;;3.20;99.90;;;;;;5028211;28;20036;-82
2022/01/05 00:57:17;;;;;;;4.43;0.60;;;2.10;99.90;;;;;;5039026;28;20056;-83
2022/01/05 00:59:43;;;;;;;9.20;0.63;;;1.90;99.90;;;;;;5035737;28;20042;-83
2022/01/05 01:02:08;;;;;;;2.58;0.60;;;1.90;99.90;;;;;;5027519;28;20045;-83
2022/01/05 01:04:34;;;;;;;9.02;0.55;;;2.70;99.90;;;;;;5045180;28;20044;-82
2022/01/05 01:07:00;;;;;;;5.40;0.45;;;2.40;99.90;;;;;;5041823;28;20041;-82
2022/01/05 01:09:26;;;;;;;8.48;0.90;;;2.20;99.90;;;;;;5034322;28;20033;-83
2022/01/05 01:11:51;;;;;;;2.78;0.55;;;1.40;99.90;;;;;;5043269;28;20080;-82
2022/01/05 01:14:17;;;;;;;9.68;1.15;;;2.70;99.90;;;;;;5040857;28;20412;-82
2022/01/05 01:16:43;;;;;;;4.20;0.68;;;2.00;99.90;;;;;;5047084;28;20079;-83
2022/01/05 01:19:09;;;;;;;3.38;0.93;;;3.60;99.90;;;;;;5042248;28;20065;-84
2022/01/05 01:21:35;;;;;;;6.40;0.73;;;1.00;99.90;;;;;;5042134;28;20381;-83
2022/01/05 01:24:01;;;;;;;4.15;0.82;;;2.00;99.90;;;;;;5024724;28;20087;-82
2022/01/05 01:26:29;;;;;;;4.32;0.57;;;2.00;99.90;;;;;;5045247;28;20470;-83
2022/01/05 01:28:56;;;;;;;16.75;1.33;;;2.70;99.90;;;;;;5043826;28;20041;-82
2022/01/05 01:31:22;;;;;;;3.53;0.60;;;2.90;99.90;;;;;;5041990;28;20041;-83
2022/01/05 01:33:48;;;;;;;5.00;0.60;;;1.90;99.90;;;;;;5041877;28;20040;-83
2022/01/05 01:36:14;;;;;;;10.55;1.05;;;1.90;99.90;;;;;;5042461;28;20096;-83
2022/01/05 01:38:41;;;;;;;10.20;0.88;;;1.90;99.90;;;;;;5026979;28;20033;-83
2022/01/05 01:41:07;;;;;;;4.22;0.60;;;2.00;99.90;;;;;;5027047;28;20425;-81
2022/01/05 01:43:33;;;;;;;9.40;0.73;;;1.90;99.90;;;;;;5041289;28;20129;-83
2022/01/05 01:46:00;;;;;;;7.72;0.70;;;2.70;99.90;;;;;;5007001;28;20045;-83
2022/01/05 01:48:26;;;;;;;9.75;0.98;;;2.00;99.90;;;;;;5041298;28;20071;-83
2022/01/05 01:50:52;;;;;;;7.10;0.98;;;1.90;99.90;;;;;;5041615;28;20067;-83
2022/01/05 01:53:18;;;;;;;7.00;0.85;;;2.00;99.90;;;;;;5042080;28;20158;-83
2022/01/05 01:55:43;;;;;;;7.32;0.73;;;2.00;99.90;;;;;;5043762;28;20049;-83
2022/01/05 01:58:09;;;;;;;6.90;1.13;;;2.00;99.90;;;;;;5044426;28;20041;-83
2022/01/05 02:00:35;;;;;;;11.40;0.88;;;2.80;99.90;;;;;;5042965;28;20138;-83
2022/01/05 02:03:02;;;;;;;9.13;1.08;;;2.10;99.90;;;;;;5041031;28;20125;-83
2022/01/05 02:05:27;;;;;;;7.40;1.17;;;2.70;99.90;;;;;;5015658;28;20048;-83
2022/01/05 02:07:53;;;;;;;13.60;1.15;;;2.20;99.90;;;;;;5025338;28;20446;-83
2022/01/05 02:10:19;;;;;;;2.85;0.70;;;3.20;99.90;;;;;;5044276;28;20040;-84
2022/01/05 02:12:44;;;;;;;5.63;0.73;;;2.70;99.90;;;;;;5043123;28;20051;-83
2022/01/05 02:15:11;;;;;;;7.35;1.38;;;2.20;99.90;;;;;;5041124;28;20483;-83
2022/01/05 02:17:51;;;;;;;7.22;0.70;;;3.10;99.90;;;;;;5040232;28;20045;-83
2022/01/05 02:20:28;;;;;;;5.28;0.73;;;2.20;99.90;;;;;;5044309;28;20090;-82
2022/01/05 02:22:55;;;;;;;10.52;0.70;;;2.30;99.90;;;;;;5043517;28;20045;-83
2022/01/05 02:25:22;;;;;;;4.43;0.65;;;2.30;99.90;;;;;;5041440;28;20048;-83
2022/01/05 02:27:49;;;;;;;9.32;0.70;;;2.30;99.90;;;;;;5040752;28;20041;-82
2022/01/05 02:30:21;;;;;;;9.18;1.42;;;3.20;99.90;;;;;;5040475;28;20107;-83
2022/01/05 02:32:47;;;;;;;8.68;1.50;;;2.30;99.90;;;;;;5035891;28;20519;-82
2022/01/05 02:35:13;;;;;;;8.68;0.98;;;3.20;99.90;;;;;;5041508;28;20048;-82
2022/01/05 02:37:41;;;;;;;5.88;0.90;;;2.60;99.90;;;;;;5043774;28;20040;-83
2022/01/05 02:40:10;;;;;;;4.00;0.75;;;2.90;99.90;;;;;;5043639;28;20048;-83
2022/01/05 02:42:36;;;;;;;8.07;0.75;;;2.30;99.90;;;;;;5031541;28;20511;-83
2022/01/05 02:45:04;;;;;;;6.43;1.08;;;2.30;99.90;;;;;;5043807;28;20136;-83
2022/01/05 02:47:30;;;;;;;7.68;0.65;;;2.30;99.90;;;;;;5034945;28;20045;-83
2022/01/05 02:49:59;;;;;;;9.50;0.80;;;3.50;99.90;;;;;;5038065;28;20046;-84
2022/01/05 02:52:25;;;;;;;9.75;1.08;;;3.00;99.90;;;;;;5040246;28;20033;-82
2022/01/05 02:54:50;;;;;;;6.70;1.00;;;2.40;99.90;;;;;;5043729;28;20053;-83
2022/01/05 02:57:16;;;;;;;6.65;1.08;;;3.30;99.90;;;;;;5043517;28;20525;-83
2022/01/05 02:59:42;;;;;;;8.15;1.42;;;2.50;99.90;;;;;;5042044;28;20128;-83
2022/01/05 03:02:08;;;;;;;7.20;0.82;;;1.80;99.90;;;;;;5043438;28;20079;-83
2022/01/05 03:04:33;;;;;;;7.22;0.73;;;3.10;99.90;;;;;;5042779;28;20398;-82
2022/01/05 03:06:59;;;;;;;9.10;0.98;;;2.90;99.90;;;;;;5040037;28;20045;-83
2022/01/05 03:09:25;;;;;;;4.22;0.88;;;3.00;99.90;;;;;;5038937;28;20036;-82
2022/01/05 03:11:51;;;;;;;4.95;0.95;;;2.70;99.90;;;;;;5024218;28;20053;-81
2022/01/05 03:14:17;;;;;;;19.65;1.10;;;2.80;99.90;;;;;;5043412;28;20124;-81
2022/01/05 03:16:42;;;;;;;6.22;0.88;;;2.80;99.90;;;;;;5043225;28;20083;-82
2022/01/05 03:19:08;;;;;;;10.90;1.10;;;3.10;99.90;;;;;;5034614;28;20033;-82
2022/01/05 03:21:34;;;;;;;5.88;1.27;;;2.90;99.90;;;;;;5042985;28;20072;-82
2022/01/05 03:23:59;;;;;;;9.70;1.40;;;2.90;99.90;;;;;;5041449;28;20048;-82
2022/01/05 03:26:25;;;;;;;7.47;0.90;;;3.40;99.90;;;;;;5039897;28;20048;-82
2022/01/05 03:28:51;;;;;;;7.15;0.73;;;3.50;99.90;;;;;;5042215;28;20049;-83
2022/01/05 03:31:17;;;;;;;9.38;0.88;;;2.90;99.90;;;;;;5046448;28;20839;-83
2022/01/05 03:33:43;;;;;;;4.03;0.90;;;3.80;99.90;;;;;;5046758;28;20044;-83
2022/01/05 03:36:09;;;;;;;7.95;0.82;;;3.60;99.90;;;;;;5046640;28;20030;-83
2022/01/05 03:38:34;;;;;;;6.13;0.70;;;4.40;99.90;;;;;;5050364;28;20044;-82
2022/01/05 03:41:00;;;;;;;5.90;1.20;;;3.30;99.90;;;;;;5049550;28;20089;-83
2022/01/05 03:43:26;;;;;;;7.85;0.73;;;2.80;99.90;;;;;;5041646;28;20057;-83
2022/01/05 03:45:52;;;;;;;5.88;0.93;;;3.50;99.90;;;;;;5049769;28;20037;-83
2022/01/05 03:48:19;;;;;;;6.13;0.98;;;2.80;99.90;;;;;;5048644;28;20509;-83
2022/01/05 03:50:45;;;;;;;6.93;0.70;;;2.80;99.90;;;;;;5028582;28;20049;-83
2022/01/05 03:53:14;;;;;;;4.07;0.63;;;2.80;99.90;;;;;;5006460;28;20053;-82
2022/01/05 03:55:42;;;;;;;5.30;0.63;;;2.80;99.90;;;;;;5048419;28;20045;-83
2022/01/05 03:58:07;;;;;;;7.30;0.80;;;2.80;99.90;;;;;;5049348;28;20029;-83
2022/01/05 04:00:37;;;;;;;7.20;0.90;;;3.10;99.90;;;;;;5039996;28;20049;-83
2022/01/05 04:03:03;;;;;;;4.93;0.60;;;3.60;99.90;;;;;;5046483;28;20037;-83
2022/01/05 04:05:29;;;;;;;6.35;1.02;;;2.90;99.90;;;;;;5028574;28;20048;-83
2022/01/05 04:07:55;;;;;;;5.35;0.68;;;2.90;99.90;;;;;;5045855;28;20500;-83
2022/01/05 04:10:21;;;;;;;5.90;0.63;;;2.90;99.90;;;;;;5049490;28;20483;-83
2022/01/05 04:12:48;;;;;;;6.72;0.70;;;3.60;99.90;;;;;;5029909;28;20049;-83
2022/01/05 04:15:15;;;;;;;6.10;0.75;;;3.40;99.90;;;;;;5046475;28;20039;-83
2022/01/05 04:17:40;;;;;;;8.05;0.70;;;2.90;99.90;;;;;;5028041;28;20072;-83
2022/01/05 04:20:06;;;;;;;12.88;1.75;;;2.90;99.90;;;;;;5048509;28;20300;-82
2022/01/05 04:22:32;;;;;;;8.88;0.88;;;3.00;99.90;;;;;;5049296;28;20554;-83
2022/01/05 04:24:58;;;;;;;5.75;0.60;;;2.90;99.90;;;;;;5047640;28;20129;-84
2022/01/05 04:27:23;;;;;;;3.28;0.45;;;3.10;99.90;;;;;;5046147;28;20041;-83
2022/01/05 04:29:49;;;;;;;9.15;1.10;;;2.80;99.90;;;;;;5046119;28;20065;-83
2022/01/05 04:32:15;;;;;;;4.25;0.73;;;2.90;99.90;;;;;;5021962;28;20502;-81
2022/01/05 04:34:40;;;;;;;7.50;0.60;;;2.90;99.90;;;;;;5049327;28;20033;-81
2022/01/05 04:37:07;;;;;;;4.28;0.73;;;3.30;99.90;;;;;;5048284;28;20033;-82
2022/01/05 04:39:33;;;;;;;2.80;0.47;;;2.80;99.90;;;;;;5045131;28;20045;-82
2022/01/05 04:41:59;;;;;;;8.82;0.95;;;2.90;99.90;;;;;;5033996;28;20053;-83
2022/01/05 04:44:25;;;;;;;4.07;0.35;;;3.10;99.90;;;;;;5044427;28;20049;-82
2022/01/05 04:46:50;;;;;;;5.57;0.80;;;3.40;99.90;;;;;;5048557;28;20052;-82
2022/01/05 04:49:16;;;;;;;5.47;0.65;;;2.90;99.90;;;;;;5042841;28;20068;-82
2022/01/05 04:51:42;;;;;;;3.28;0.40;;;3.00;99.90;;;;;;5035123;28;20041;-84
2022/01/05 04:54:08;;;;;;;7.90;0.70;;;2.90;99.90;;;;;;5042662;28;20041;-84
2022/01/05 04:56:34;;;;;;;3.67;0.70;;;3.80;99.90;;;;;;5042187;28;20041;-84
2022/01/05 04:58:59;;;;;;;2.15;0.40;;;3.40;99.90;;;;;;5039407;28;20118;-83
2022/01/05 05:01:25;;;;;;;8.27;0.80;;;3.80;99.90;;;;;;5026757;28;20051;-83
2022/01/05 05:03:51;;;;;;;6.90;0.80;;;3.60;99.90;;;;;;5042356;28;20373;-84
2022/01/05 05:06:17;;;;;;;8.25;1.10;;;2.80;99.90;;;;;;5047610;28;20048;-83
2022/01/05 05:08:43;;;;;;;6.10;0.68;;;3.00;99.90;;;;;;5025258;28;20041;-83
2022/01/05 05:11:09;;;;;;;3.42;0.45;;;3.00;99.90;;;;;;5039725;28;20045;-84
2022/01/05 05:13:34;;;;;;;7.78;0.50;;;4.30;99.90;;;;;;5044431;28;20076;-83
2022/01/05 05:16:01;;;;;;;2.42;0.50;;;3.50;99.90;;;;;;5035016;28;20400;-83
2022/01/05 05:18:27;;;;;;;5.90;0.70;;;3.20;99.90;;;;;;5042038;28;20050;-83
2022/01/05 05:20:53;;;;;;;5.05;0.50;;;3.80;99.90;;;;;;5025527;28;20045;-83
2022/01/05 05:23:18;;;;;;;4.78;1.05;;;3.20;99.90;;;;;;5039681;28;20407;-83
2022/01/05 05:25:44;;;;;;;5.28;1.02;;;3.50;99.90;;;;;;5041539;28;20182;-83
2022/01/05 05:28:10;;;;;;;6.85;1.13;;;3.20;99.90;;;;;;5037621;28;20098;-83
2022/01/05 05:30:36;;;;;;;6.20;1.00;;;4.00;99.90;;;;;;5023720;28;20057;-83
2022/01/05 05:33:03;;;;;;;9.32;1.20;;;3.70;99.90;;;;;;5044381;28;20021;-83
2022/01/05 05:35:32;;;;;;;7.50;1.13;;;4.00;99.90;;;;;;5027222;28;20044;-82
2022/01/05 05:37:58;;;;;;;5.40;0.93;;;3.30;99.90;;;;;;5042376;28;20033;-82
2022/01/05 05:40:24;;;;;;;8.90;1.45;;;3.40;99.90;;;;;;5024083;28;20565;-82
2022/01/05 05:42:50;;;;;;;5.97;0.88;;;3.80;99.90;;;;;;5041547;28;20030;-82
2022/01/05 05:45:16;;;;;;;10.88;1.25;;;3.50;99.90;;;;;;5041668;28;20099;-83
2022/01/05 05:47:42;;;;;;;6.75;0.70;;;3.50;99.90;;;;;;5041727;28;20053;-82
2022/01/05 05:50:09;;;;;;;9.80;1.20;;;3.50;99.90;;;;;;5043765;28;20041;-82
2022/01/05 05:52:34;;;;;;;4.78;0.70;;;3.60;99.90;;;;;;5045400;28;20055;-83
2022/01/05 05:55:00;;;;;;;4.65;0.60;;;3.60;99.90;;;;;;5043197;28;20049;-83
2022/01/05 05:57:26;;;;;;;4.60;0.70;;;3.70;99.90;;;;;;5041479;28;20045;-83
2022/01/05 05:59:52;;;;;;;4.72;0.47;;;3.70;99.90;;;;;;5041348;28;20049;-83
2022/01/05 06:02:17;;;;;;;3.75;0.50;;;3.70;99.90;;;;;;5043598;28;20028;-83
2022/01/05 06:04:43;;;;;;;4.93;0.63;;;4.30;99.90;;;;;;5044685;28;20041;-83
2022/01/05 06:07:09;;;;;;;3.33;0.55;;;3.50;99.90;;;;;;5042714;28;20403;-83
2022/01/05 06:09:34;;;;;;;3.55;0.40;;;2.80;99.90;;;;;;5041053;28;20529;-83
2022/01/05 06:12:00;;;;;;;7.40;0.70;;;3.50;99.90;;;;;;5007158;28;20060;-83
2022/01/05 06:14:26;;;;;;;4.07;0.68;;;4.00;99.90;;;;;;5026535;28;20048;-83
2022/01/05 06:16:52;;;;;;;6.28;0.82;;;3.70;99.90;;;;;;5021925;28;20053;-83
2022/01/05 06:19:17;;;;;;;5.90;0.60;;;3.50;99.90;;;;;;5042499;28;20464;-83
2022/01/05 06:21:44;;;;;;;6.68;0.80;;;3.30;99.90;;;;;;5044264;28;20083;-84
2022/01/05 06:24:11;;;;;;;4.78;0.85;;;3.50;99.90;;;;;;5043131;28;20036;-84
2022/01/05 06:26:37;;;;;;;6.60;0.88;;;4.00;99.90;;;;;;5036630;28;20125;-84
2022/01/05 06:29:03;;;;;;;2.47;0.40;;;3.30;99.90;;;;;;5036863;28;20502;-83
2022/01/05 06:31:28;;;;;;;6.32;0.80;;;3.80;99.90;;;;;;5040682;28;20132;-83
2022/01/05 06:33:55;;;;;;;3.10;0.55;;;4.30;99.90;;;;;;5041044;28;20417;-84
2022/01/05 06:36:21;;;;;;;7.55;0.75;;;4.30;99.90;;;;;;5041338;28;20045;-82
2022/01/05 06:38:47;;;;;;;8.27;0.60;;;3.70;99.90;;;;;;5043873;28;20056;-83
2022/01/05 06:41:12;;;;;;;7.50;1.02;;;3.80;99.90;;;;;;5026437;28;20049;-84
2022/01/05 06:43:38;;;;;;;8.43;0.80;;;4.50;99.90;;;;;;5034883;28;20051;-83
2022/01/05 06:46:04;;;;;;;4.70;0.45;;;4.20;99.90;;;;;;5043482;28;20040;-83
2022/01/05 06:48:29;;;;;;;4.00;0.45;;;4.00;99.90;;;;;;5041861;28;20033;-84
2022/01/05 06:50:55;;;;;;;3.05;0.70;;;3.80;99.90;;;;;;5040524;28;20086;-84
2022/01/05 06:53:21;;;;;;;6.78;0.63;;;3.90;99.90;;;;;;5029633;28;20384;-82
2022/01/05 06:55:47;;;;;;;14.75;1.10;;;3.90;99.90;;;;;;5040495;28;20043;-84
2022/01/05 06:58:12;;;;;;;7.15;1.00;;;4.60;99.90;;;;;;5040588;28;20068;-83
2022/01/05 07:00:38;;;;;;;6.57;0.98;;;4.40;99.90;;;;;;5039613;28;20521;-83
2022/01/05 07:03:04;;;;;;;4.15;0.75;;;4.00;99.90;;;;;;5036904;28;20051;-82
2022/01/05 07:05:31;;;;;;;8.65;0.95;;;3.90;99.90;;;;;;5042659;28;20059;-83
2022/01/05 07:07:57;;;;;;;5.10;0.50;;;4.00;99.90;;;;;;5040173;28;20052;-83
2022/01/05 07:10:23;;;;;;;7.10;0.60;;;4.40;99.90;;;;;;5043322;28;20036;-83
2022/01/05 07:12:49;;;;;;;4.03;0.65;;;4.10;99.90;;;;;;5039969;28;20041;-84
2022/01/05 07:15:15;;;;;;;2.67;0.50;;;4.10;99.90;;;;;;5040036;28;20080;-83
2022/01/05 07:17:41;;;;;;;6.22;0.82;;;4.10;99.90;;;;;;5039502;28;20099;-84
2022/01/05 07:20:08;;;;;;;4.00;0.40;;;4.10;99.90;;;;;;5039816;28;20447;-84
2022/01/05 07:22:35;;;;;;;8.93;0.80;;;4.20;99.90;;;;;;5039781;28;20095;-84
2022/01/05 07:25:01;;;;;;;5.35;0.68;;;3.80;99.90;;;;;;5027551;28;20033;-84
2022/01/05 07:27:27;;;;;;;6.28;0.82;;;4.50;99.90;;;;;;5036594;28;20068;-82
2022/01/05 07:29:53;;;;;;;9.48;0.70;;;4.00;99.90;;;;;;5039830;28;20047;-83
2022/01/05 07:32:18;;;;;;;3.60;0.50;;;4.00;99.90;;;;;;5039616;28;20038;-83
2022/01/05 07:34:44;;;;;;;4.57;0.65;;;5.80;99.90;;;;;;5042527;28;20592;-83
2022/01/05 07:37:10;;;;;;;3.78;0.55;;;4.90;99.90;;;;;;5039851;28;20072;-84
2022/01/05 07:39:36;;;;;;;9.18;0.85;;;4.30;99.90;;;;;;5028707;28;20041;-83
2022/01/05 07:42:02;;;;;;;2.65;0.38;;;4.10;99.90;;;;;;5022733;28;20509;-84
2022/01/05 07:44:28;;;;;;;5.57;0.50;;;4.00;99.90;;;;;;5039294;28;20053;-83
2022/01/05 07:46:54;;;;;;;4.43;0.30;;;4.00;99.90;;;;;;5038034;28;20052;-83
2022/01/05 07:49:19;;;;;;;1.90;0.60;;;4.60;99.90;;;;;;5039574;28;20515;-84
2022/01/05 07:51:45;;;;;;;1.63;0.43;;;4.80;99.90;;;;;;5039551;28;20052;-84
2022/01/05 07:54:11;;;;;;;7.22;0.60;;;4.80;99.90;;;;;;5044268;28;20041;-84
2022/01/05 07:56:37;;;;;;;7.00;0.60;;;3.60;99.90;;;;;;5042946;28;20041;-83
2022/01/05 07:59:03;;;;;;;6.95;0.68;;;4.20;99.90;;;;;;5040610;28;20045;-83
2022/01/05 08:01:29;;;;;;;5.60;0.60;;;4.70;99.90;;;;;;5021813;28;20045;-83
2022/01/05 08:03:54;;;;;;;8.32;0.57;;;4.00;99.90;;;;;;5039580;28;20381;-83
2022/01/05 08:06:21;;;;;;;6.90;0.93;;;4.10;99.90;;;;;;5042697;28;20033;-83
2022/01/05 08:08:47;;;;;;;4.25;0.50;;;4.20;99.90;;;;;;5042745;28;20049;-83
2022/01/05 08:11:13;;;;;;;9.70;0.52;;;4.30;99.90;;;;;;5039816;28;20050;-84
2022/01/05 08:13:39;;;;;;;6.40;0.60;;;4.40;99.90;;;;;;5021783;28;20499;-83
2022/01/05 08:16:05;;;;;;;7.60;0.80;;;5.00;99.90;;;;;;5047645;28;20115;-84
2022/01/05 08:18:31;;;;;;;2.13;0.73;;;5.10;99.90;;;;;;5043072;28;20127;-82
2022/01/05 08:20:59;;;;;;;5.80;0.40;;;4.50;99.90;;;;;;5017745;28;20096;-83
2022/01/05 08:23:25;;;;;;;6.25;0.70;;;4.60;99.90;;;;;;5042933;28;20403;-82
2022/01/05 08:25:51;;;;;;;5.38;0.60;;;4.60;99.90;;;;;;5042891;28;20038;-84
2022/01/05 08:28:18;;;;;;;2.15;0.50;;;5.00;99.90;;;;;;5044467;28;20488;-85
2022/01/05 08:30:45;;;;;;;7.63;0.80;;;5.00;99.90;;;;;;5045790;28;20479;-85
2022/01/05 08:33:16;;;;;;;3.10;1.33;;;4.50;99.90;;;;;;5044373;28;20090;-85
2022/01/05 08:35:42;;;;;;;3.97;0.50;;;4.50;99.90;;;;;;5040016;28;20049;-86
2022/01/05 08:38:09;;;;;;;5.05;0.70;;;4.50;99.90;;;;;;5045208;28;20041;-83
2022/01/05 08:40:36;;;;;;;6.22;1.00;;;5.20;99.90;;;;;;5042593;28;20037;-84
2022/01/05 08:43:04;;;;;;;10.93;1.25;;;4.70;99.90;;;;;;5038608;28;20381;-83
2022/01/05 08:45:30;;;;;;;6.28;0.70;;;5.10;99.90;;;;;;5042348;28;21111;-84
2022/01/05 08:47:58;;;;;;;7.68;1.20;;;5.10;99.90;;;;;;5022869;28;20045;-83
2022/01/05 08:50:25;;;;;;;8.77;0.90;;;5.40;99.90;;;;;;5044015;28;20400;-87
2022/01/05 08:52:52;;;;;;;9.32;1.00;;;5.20;99.90;;;;;;5041746;28;20044;-86
2022/01/05 08:55:23;;;;;;;8.13;0.77;;;5.00;99.90;;;;;;5044342;28;20128;-87
2022/01/05 08:57:49;;;;;;;12.88;1.17;;;5.10;99.90;;;;;;5024588;28;20081;-86
2022/01/05 09:00:16;;;;;;;10.45;1.10;;;5.40;99.90;;;;;;5042137;28;20056;-89
2022/01/05 09:02:42;;;;;;;6.57;1.10;;;5.20;99.90;;;;;;5046269;28;20065;-85
2022/01/05 09:05:10;;;;;;;11.40;1.13;;;5.40;99.90;;;;;;5017361;28;20068;-92
2022/01/05 09:07:36;;;;;;;8.15;0.82;;;5.30;99.90;;;;;;5019517;28;20840;-86
2022/01/05 09:10:04;;;;;;;9.35;1.30;;;5.40;99.90;;;;;;5039772;28;20042;-83
2022/01/05 09:12:31;;;;;;;5.47;1.10;;;5.30;99.90;;;;;;5017766;28;20049;-85
2022/01/05 09:14:56;;;;;;;8.63;0.70;;;6.50;99.90;;;;;;5027562;28;20041;-82
2022/01/05 09:17:24;;;;;;;9.13;2.17;;;5.90;99.90;;;;;;5042342;28;20079;-83
2022/01/05 09:19:50;;;;;;;7.22;0.82;;;5.50;99.90;;;;;;5042117;28;20380;-84
2022/01/05 09:22:16;;;;;;;5.75;0.68;;;5.50;99.90;;;;;;5042092;28;20037;-83
2022/01/05 09:24:42;;;;;;;8.90;0.80;;;4.80;99.90;;;;;;5042087;28;20501;-84
2022/01/05 09:27:07;;;;;;;6.60;0.70;;;5.70;99.90;;;;;;5023167;28;20514;-85
2022/01/05 09:29:34;;;;;;;9.30;0.68;;;5.40;99.90;;;;;;5041859;28;20491;-86
2022/01/05 09:32:04;;;;;;;12.88;1.55;;;5.40;99.90;;;;;;5033943;28;20030;-86
2022/01/05 09:34:34;;;;;;;5.35;0.93;;;5.50;99.90;;;;;;5016801;28;20124;-86
2022/01/05 09:37:13;;;;;;;11.48;1.73;;;5.90;99.90;;;;;;4999978;28;20046;-85
2022/01/05 09:42:23;;;;;;;19.13;1.27;;;6.60;99.90;;;;;;5034218;28;20411;-86
2022/01/05 09:44:52;;;;;;;19.88;2.38;;;6.10;99.90;;;;;;5016038;28;20064;-86
2022/01/05 09:47:37;;;;;;;14.23;2.03;;;6.50;99.90;;;;;;5016510;28;20044;-86
2022/01/05 09:50:07;;;;;;;12.93;2.05;;;6.10;99.90;;;;;;5034339;28;20056;-86
2022/01/05 09:52:34;;;;;;;12.93;1.40;;;6.90;99.90;;;;;;5016660;28;20403;-85
2022/01/05 09:55:01;;;;;;;11.98;2.30;;;6.70;99.90;;;;;;5016299;28;20488;-84
2022/01/05 09:57:27;;;;;;;11.60;1.42;;;6.10;99.90;;;;;;5016166;28;20050;-84
2022/01/05 09:59:54;;;;;;;4.65;1.30;;;6.00;99.90;;;;;;5016687;28;20048;-84
2022/01/05 10:02:20;;;;;;;11.23;1.98;;;6.90;99.90;;;;;;4999721;28;20034;-84
2022/01/05 10:04:46;;;;;;;12.52;1.10;;;5.80;99.90;;;;;;5033818;28;20049;-84
2022/01/05 10:07:13;;;;;;;15.50;1.52;;;6.70;99.90;;;;;;5016317;28;20480;-86
2022/01/05 10:09:40;;;;;;;9.30;1.30;;;6.60;99.90;;;;;;4999972;28;20108;-85
2022/01/05 10:12:06;;;;;;;12.98;1.40;;;6.00;99.90;;;;;;5016130;28;20128;-85
2022/01/05 10:14:32;;;;;;;15.45;1.33;;;6.70;99.90;;;;;;5033841;28;20037;-85
2022/01/05 10:17:05;;;;;;;18.60;2.85;;;7.40;99.90;;;;;;5033811;28;20049;-85
2022/01/05 10:19:32;;;;;;;15.27;1.85;;;6.60;99.90;;;;;;5016051;28;20129;-84
2022/01/05 10:21:58;;;;;;;16.98;2.30;;;7.50;99.90;;;;;;5015993;28;20045;-86
2022/01/05 10:24:47;;;;;;;22.38;1.50;;;7.80;99.90;;;;;;5016098;28;20049;-85
2022/01/05 10:27:21;;;;;;;13.20;1.17;;;6.90;99.90;;;;;;5015785;28;20045;-85
2022/01/05 10:29:56;;;;;;;13.85;1.58;;;7.70;99.90;;;;;;5015737;28;20060;-86
2022/01/05 10:32:23;;;;;;;11.13;1.48;;;7.50;99.90;;;;;;5033507;28;20045;-84
2022/01/05 10:35:13;;;;;;;9.48;1.00;;;6.80;99.90;;;;;;5033305;28;20041;-84
2022/01/05 10:37:44;;;;;;;17.70;2.05;;;6.90;99.90;;;;;;5032999;28;20134;-84
2022/01/05 10:40:17;;;;;;;14.45;1.50;;;7.00;99.90;;;;;;5033262;28;20045;-85
2022/01/05 10:42:43;;;;;;;10.75;2.03;;;7.00;99.90;;;;;;4999163;28;20052;-83
2022/01/05 10:45:14;;;;;;;19.20;2.40;;;7.30;99.90;;;;;;5015246;28;20496;-86
2022/01/05 10:47:41;;;;;;;17.08;1.73;;;7.30;99.90;;;;;;5015304;28;20046;-85
2022/01/05 10:50:19;;;;;;;13.10;1.77;;;7.30;99.90;;;;;;5033206;28;20108;-85
2022/01/05 10:52:54;;;;;;;16.50;2.53;;;7.30;99.90;;;;;;5015373;28;20084;-85
2022/01/05 10:55:21;;;;;;;21.33;2.58;;;8.20;99.90;;;;;;5033036;28;20377;-85
2022/01/05 10:58:03;;;;;;;11.52;1.60;;;7.30;99.90;;;;;;4998978;28;20053;-85
2022/01/05 11:00:42;;;;;;;15.80;1.98;;;7.70;99.90;;;;;;5032907;28;20059;-83
2022/01/05 11:03:27;;;;;;;19.75;2.20;;;7.50;99.90;;;;;;5032972;28;20519;-83
2022/01/05 11:06:15;;;;;;;17.83;2.13;;;7.70;99.90;;;;;;5032901;28;20051;-84
2022/01/05 11:08:52;;;;;;;16.83;2.15;;;7.50;99.90;;;;;;5014905;28;20354;-83
2022/01/05 11:11:37;;;;;;;12.05;2.13;;;7.50;99.90;;;;;;5015265;28;20047;-83
2022/01/05 11:14:16;;;;;;;15.63;2.45;;;7.30;99.90;;;;;;5014874;28;20049;-83
2022/01/05 11:16:53;;;;;;;19.77;2.03;;;7.50;99.90;;;;;;5015041;28;20049;-84
2022/01/05 11:19:27;;;;;;;22.88;2.90;;;7.40;99.90;;;;;;5032209;28;20052;-84
2022/01/05 11:22:16;;;;;;;26.38;2.97;;;8.30;99.90;;;;;;5014019;28;20053;-82
2022/01/05 11:24:45;;;;;;;18.02;2.75;;;7.80;99.90;;;;;;5033833;28;20042;-83
2022/01/05 11:27:16;;;;;;;14.20;1.98;;;8.00;99.90;;;;;;5040361;28;20037;-85
2022/01/05 11:29:43;;;;;;;16.77;2.25;;;8.10;99.90;;;;;;5025608;28;20132;-81
2022/01/05 11:32:11;;;;;;;17.27;1.70;;;8.70;99.90;;;;;;5016469;28;20049;-84
2022/01/05 11:34:37;;;;;;;11.63;1.98;;;8.80;99.90;;;;;;5043219;28;20043;-83
2022/01/05 11:37:04;;;;;;;12.90;1.83;;;8.40;99.90;;;;;;5024115;28;20124;-82
2022/01/05 11:39:31;;;;;;;13.70;1.75;;;8.10;99.90;;;;;;5035038;28;20515;-81
2022/01/05 11:42:03;;;;;;;15.55;2.05;;;8.30;99.90;;;;;;5025371;28;20036;-84
2022/01/05 11:44:29;;;;;;;15.88;1.50;;;8.00;99.90;;;;;;5021599;28;20419;-83
2022/01/05 11:46:56;;;;;;;13.10;1.88;;;8.50;99.90;;;;;;5039531;28;20050;-83
2022/01/05 11:49:28;;;;;;;18.83;1.75;;;7.90;99.90;;;;;;5021006;28;20495;-81
2022/01/05 11:51:59;;;;;;;11.73;1.55;;;8.40;99.90;;;;;;5046918;28;20040;-83
2022/01/05 11:54:26;;;;;;;12.05;1.30;;;8.20;99.90;;;;;;5044059;28;20045;-83
2022/01/05 11:57:00;;;;;;;12.18;1.10;;;8.70;99.90;;;;;;5043714;28;20041;-81
2022/01/05 11:59:25;;;;;;;8.90;2.22;;;8.30;99.90;;;;;;5045148;28;20116;-81
2022/01/05 12:02:12;;;;;;;13.85;1.13;;;8.70;99.90;;;;;;5046854;28;20547;-82
2022/01/05 12:04:55;;;;;;;12.48;1.27;;;8.00;99.90;;;;;;5035521;28;20553;-81
2022/01/05 12:07:46;;;;;;;25.05;1.90;;;8.60;99.90;;;;;;5042736;28;20048;-82
2022/01/05 12:10:21;;;;;;;10.10;0.93;;;7.90;99.90;;;;;;5025871;28;20045;-81
2022/01/05 12:12:55;;;;;;;18.27;2.58;;;8.40;99.90;;;;;;5036152;28;20079;-82
2022/01/05 12:15:43;;;;;;;11.27;1.33;;;8.40;99.90;;;;;;5032664;28;20045;-82
2022/01/05 12:18:36;;;;;;;14.95;1.20;;;8.00;99.90;;;;;;5025519;28;20049;-81
2022/01/05 12:21:02;;;;;;;6.82;0.70;;;8.00;99.90;;;;;;5037514;28;20403;-82
2022/01/05 12:23:30;;;;;;;7.70;0.70;;;7.60;99.90;;;;;;5044620;28;20041;-82
2022/01/05 12:26:02;;;;;;;4.68;0.80;;;8.60;99.90;;;;;;5046294;28;20111;-81
2022/01/05 12:28:39;;;;;;;8.32;1.52;;;8.70;99.90;;;;;;5044770;28;20055;-81
2022/01/05 12:31:06;;;;;;;9.85;1.45;;;8.20;99.90;;;;;;5018395;28;20053;-81
2022/01/05 12:33:50;;;;;;;8.00;1.10;;;9.00;99.90;;;;;;5037335;28;20080;-83
2022/01/05 12:36:37;;;;;;;7.60;1.40;;;8.10;99.90;;;;;;5025377;28;20096;-82
2022/01/05 12:39:07;;;;;;;9.65;0.98;;;7.50;99.90;;;;;;5042556;28;20400;-81
2022/01/05 12:41:42;;;;;;;10.00;1.42;;;8.00;99.90;;;;;;5046368;28;20037;-80
2022/01/05 12:44:22;;;;;;;17.48;1.25;;;8.10;99.90;;;;;;5037441;28;20057;-81
2022/01/05 12:46:49;;;;;;;13.13;1.45;;;9.10;99.90;;;;;;5046187;28;20049;-82
2022/01/05 12:49:23;;;;;;;16.73;1.30;;;8.70;99.90;;;;;;5043713;28;20048;-81
2022/01/05 12:52:09;;;;;;;19.77;1.95;;;8.50;99.90;;;;;;5047397;28;20098;-81
2022/01/05 12:54:44;;;;;;;12.40;1.90;;;8.30;99.90;;;;;;5017570;28;20049;-82
2022/01/05 12:57:14;;;;;;;18.60;3.00;;;8.30;99.90;;;;;;5018910;28;20049;-81
2022/01/05 12:59:47;;;;;;;16.75;1.75;;;9.30;99.90;;;;;;5035198;28;20049;-80
2022/01/05 13:02:23;;;;;;;15.20;1.90;;;8.30;99.90;;;;;;5034112;28;20046;-82